Time;durP1;ratioP1;P1;durP2;ratioP2;P2;SDS_P1;SDS_P2;PMS_P1;PMS_P2;Temp;Humidity;BMP_temperature;BMP_pressure;BME280_temperature;BME280_humidity;BME280_pressure;Samples;Min_cycle;Max_cycle;Signal;HPM_P1;HPM_P2
2021/12/29 00:02:11;;;;;;;8.68;2.25;;;11.50;99.90;;;;;;5028463;28;20181;-87
2021/12/29 00:04:42;;;;;;;6.90;1.83;;;9.00;99.90;;;;;;5023827;28;20330;-87
2021/12/29 00:07:10;;;;;;;12.95;1.95;;;9.60;99.90;;;;;;5029871;28;20212;-85
2021/12/29 00:09:39;;;;;;;9.95;2.70;;;9.00;99.90;;;;;;5028522;28;20256;-86
2021/12/29 00:12:09;;;;;;;4.63;1.05;;;9.00;99.90;;;;;;5047592;28;20632;-87
2021/12/29 00:14:35;;;;;;;18.08;4.95;;;;;;;;;;5032971;28;20209;-86
2021/12/29 00:17:02;;;;;;;4.88;1.45;;;9.00;99.90;;;;;;5051658;28;20261;-83
2021/12/29 00:19:28;;;;;;;15.25;3.33;;;9.00;99.90;;;;;;5042752;28;20205;-87
2021/12/29 00:21:55;;;;;;;12.83;2.37;;;9.00;99.90;;;;;;5034836;28;20173;-86
2021/12/29 00:24:21;;;;;;;8.18;2.00;;;9.00;99.90;;;;;;5029336;28;20206;-86
2021/12/29 00:26:48;;;;;;;9.48;2.38;;;9.00;99.90;;;;;;5036592;28;20183;-87
2021/12/29 00:29:21;;;;;;;8.30;2.00;;;9.00;99.90;;;;;;5032477;28;20177;-87
2021/12/29 00:31:48;;;;;;;5.70;1.58;;;9.00;99.90;;;;;;5049637;28;20591;-87
2021/12/29 00:34:13;;;;;;;11.93;3.08;;;8.90;99.90;;;;;;5033718;28;20181;-87
2021/12/29 00:36:39;;;;;;;6.17;1.40;;;8.90;99.90;;;;;;5050668;28;20189;-86
2021/12/29 00:39:05;;;;;;;9.80;1.97;;;;;;;;;;5045744;28;20190;-85
2021/12/29 00:41:31;;;;;;;12.00;2.25;;;;;;;;;;5031976;28;20490;-89
2021/12/29 00:43:57;;;;;;;3.80;1.60;;;9.00;99.90;;;;;;5048949;28;20603;-87
2021/12/29 00:46:23;;;;;;;9.57;2.67;;;8.90;99.90;;;;;;5053485;28;20435;-85
2021/12/29 00:48:51;;;;;;;6.80;1.88;;;9.00;99.90;;;;;;5037641;28;20299;-86
2021/12/29 00:51:18;;;;;;;9.57;1.80;;;9.00;99.90;;;;;;5051800;28;20193;-88
2021/12/29 00:53:43;;;;;;;5.10;1.88;;;9.00;99.90;;;;;;5033766;28;20692;-87
2021/12/29 00:56:10;;;;;;;2.47;1.70;;;;;;;;;;5033190;28;20284;-86
2021/12/29 00:58:35;;;;;;;8.25;1.83;;;9.00;99.90;;;;;;5033375;28;20675;-87
2021/12/29 01:01:03;;;;;;;6.80;1.73;;;8.90;99.90;;;;;;5033280;28;20185;-86
2021/12/29 01:03:29;;;;;;;6.55;1.85;;;8.90;99.90;;;;;;5033179;28;20177;-87
2021/12/29 01:05:55;;;;;;;7.10;2.20;;;8.80;99.90;;;;;;5032310;28;20840;-89
2021/12/29 01:08:21;;;;;;;10.30;2.10;;;;;;;;;;5034475;28;20297;-87
2021/12/29 01:10:47;;;;;;;11.82;1.60;;;8.80;99.90;;;;;;5036293;28;20177;-87
2021/12/29 01:13:18;;;;;;;3.92;1.13;;;8.80;99.90;;;;;;5031073;28;20649;-87
2021/12/29 01:16:36;;;;;;;5.13;1.75;;;8.70;99.90;;;;;;5036941;28;20207;-87
2021/12/29 01:18:36;;;;;;;6.15;1.30;;;8.70;99.90;;;;;;5042804;28;20304;-88
2021/12/29 01:21:03;;;;;;;4.00;1.00;;;8.70;99.90;;;;;;5030380;28;20177;-86
2021/12/29 01:23:29;;;;;;;4.68;2.03;;;;;;;;;;5042848;28;20181;-89
2021/12/29 01:25:55;;;;;;;4.72;1.88;;;;;;;;;;5040598;28;22238;-88
2021/12/29 01:28:21;;;;;;;7.20;1.63;;;;;;;;;;5035672;28;20295;-87
2021/12/29 01:30:47;;;;;;;9.57;1.67;;;;;;;;;;5046397;28;20416;-86
2021/12/29 01:33:13;;;;;;;6.13;1.50;;;;;;;;;;5058971;28;20184;-90
2021/12/29 01:35:40;;;;;;;4.50;1.42;;;8.90;99.90;;;;;;5049114;28;20459;-87
2021/12/29 01:38:06;;;;;;;13.57;1.98;;;8.90;99.90;;;;;;5056509;28;20292;-89
2021/12/29 01:40:33;;;;;;;7.68;1.98;;;9.70;99.90;;;;;;5033409;28;20526;-89
2021/12/29 01:42:59;;;;;;;8.57;1.33;;;8.90;99.90;;;;;;5036351;28;20177;-86
2021/12/29 01:45:25;;;;;;;8.35;1.88;;;;;;;;;;5034387;28;20182;-86
2021/12/29 01:47:51;;;;;;;4.50;1.40;;;;;;;;;;5040453;28;20243;-84
2021/12/29 01:50:18;;;;;;;14.73;2.80;;;8.90;99.90;;;;;;5054066;28;20972;-85
2021/12/29 01:52:51;;;;;;;6.15;2.22;;;;;;;;;;5035647;28;20459;-87
2021/12/29 01:55:17;;;;;;;5.28;1.73;;;;;;;;;;5026716;28;20201;-85
2021/12/29 01:57:44;;;;;;;7.63;2.13;;;8.90;99.90;;;;;;5027085;28;20192;-85
2021/12/29 02:00:17;;;;;;;6.15;1.55;;;8.90;99.90;;;;;;5029397;28;20188;-86
2021/12/29 02:02:42;;;;;;;5.68;1.05;;;8.80;99.90;;;;;;5033722;28;20662;-87
2021/12/29 02:05:08;;;;;;;5.20;1.30;;;8.80;99.90;;;;;;5028089;28;20188;-86
2021/12/29 02:07:34;;;;;;;7.32;1.88;;;8.70;99.90;;;;;;5046877;28;20197;-83
2021/12/29 02:10:00;;;;;;;4.73;1.50;;;;;;;;;;5027040;28;20341;-86
2021/12/29 02:12:26;;;;;;;4.28;1.63;;;;;;;;;;5028686;28;20456;-86
2021/12/29 02:14:53;;;;;;;10.55;1.92;;;;;;;;;;5045040;28;20207;-84
2021/12/29 02:17:19;;;;;;;3.80;1.13;;;8.80;99.90;;;;;;5044631;28;20209;-85
2021/12/29 02:19:47;;;;;;;4.88;1.40;;;;;;;;;;5024869;28;20638;-87
2021/12/29 02:22:27;;;;;;;3.22;1.60;;;8.60;99.90;;;;;;5044560;28;20185;-86
2021/12/29 02:24:54;;;;;;;5.68;1.33;;;8.60;99.90;;;;;;5028312;28;20177;-84
2021/12/29 02:27:20;;;;;;;7.18;1.40;;;8.60;99.90;;;;;;5043551;28;20292;-86
2021/12/29 02:29:47;;;;;;;5.97;1.90;;;;;;;;;;5042212;28;20642;-87
2021/12/29 02:32:14;;;;;;;8.68;1.27;;;8.60;99.90;;;;;;5034080;28;20192;-83
2021/12/29 02:34:40;;;;;;;17.38;2.42;;;8.60;99.90;;;;;;5043730;28;20279;-85
2021/12/29 02:37:07;;;;;;;5.10;1.30;;;8.60;99.90;;;;;;5043118;28;21384;-84
2021/12/29 02:39:36;;;;;;;3.00;1.10;;;8.60;99.90;;;;;;5023663;28;20169;-85
2021/12/29 02:42:06;;;;;;;5.90;1.13;;;8.60;99.90;;;;;;5047760;28;20181;-86
2021/12/29 02:44:39;;;;;;;4.22;1.55;;;8.60;99.90;;;;;;5029712;28;24118;-84
2021/12/29 02:47:05;;;;;;;4.05;1.48;;;8.60;99.90;;;;;;5031580;28;20531;-85
2021/12/29 02:49:31;;;;;;;4.95;1.20;;;8.60;99.90;;;;;;5046614;28;20552;-86
2021/12/29 02:51:57;;;;;;;6.93;1.57;;;;;;;;;;5052102;28;20185;-85
2021/12/29 02:54:23;;;;;;;13.07;1.58;;;8.60;99.90;;;;;;5028931;28;20490;-88
2021/12/29 02:56:54;;;;;;;3.83;1.60;;;8.60;99.90;;;;;;5051775;28;20189;-88
2021/12/29 02:59:21;;;;;;;5.43;1.00;;;8.60;99.90;;;;;;5046092;28;20174;-86
2021/12/29 03:01:47;;;;;;;7.20;1.95;;;8.60;99.90;;;;;;5021379;28;20192;-87
2021/12/29 03:04:12;;;;;;;3.10;1.30;;;8.60;99.90;;;;;;5020680;28;20185;-86
2021/12/29 03:06:39;;;;;;;4.67;1.33;;;8.70;99.90;;;;;;5023204;28;20436;-83
2021/12/29 03:09:07;;;;;;;8.07;1.23;;;8.70;99.90;;;;;;5049782;28;20193;-88
2021/12/29 03:11:33;;;;;;;7.50;1.50;;;8.70;99.90;;;;;;5035312;28;20177;-87
2021/12/29 03:13:59;;;;;;;2.72;1.52;;;8.70;99.90;;;;;;5034332;28;20181;-87
2021/12/29 03:16:25;;;;;;;3.17;1.07;;;8.70;99.90;;;;;;5047602;28;20216;-85
2021/12/29 03:18:51;;;;;;;4.90;0.80;;;;;;;;;;5028831;28;20857;-84
2021/12/29 03:21:16;;;;;;;1.97;1.23;;;8.60;99.90;;;;;;5046882;28;20555;-86
2021/12/29 03:23:42;;;;;;;8.90;1.83;;;;;;;;;;5032707;28;20440;-87
2021/12/29 03:26:08;;;;;;;2.67;1.13;;;;;;;;;;5049343;28;20181;-86
2021/12/29 03:28:35;;;;;;;4.50;2.17;;;8.60;99.90;;;;;;5037297;28;20198;-85
2021/12/29 03:31:01;;;;;;;2.10;0.90;;;;;;;;;;5035127;28;20189;-86
2021/12/29 03:33:30;;;;;;;1.85;0.95;;;8.50;99.90;;;;;;5034031;28;20193;-86
2021/12/29 03:36:02;;;;;;;8.95;0.85;;;8.50;99.90;;;;;;5048691;28;20284;-85
2021/12/29 03:38:31;;;;;;;5.60;1.25;;;8.50;99.90;;;;;;5042717;28;20246;-87
2021/12/29 03:40:57;;;;;;;11.13;1.35;;;8.40;99.90;;;;;;5036371;28;20651;-85
2021/12/29 03:43:23;;;;;;;1.40;0.88;;;8.40;99.90;;;;;;5039500;28;20188;-86
2021/12/29 03:45:51;;;;;;;2.58;1.00;;;8.40;99.90;;;;;;5035338;28;20181;-86
2021/12/29 03:48:19;;;;;;;3.97;1.38;;;8.30;99.90;;;;;;5034813;28;20698;-87
2021/12/29 03:50:46;;;;;;;9.73;1.83;;;8.30;99.90;;;;;;5036872;28;20268;-86
2021/12/29 03:53:14;;;;;;;5.95;1.60;;;8.30;99.90;;;;;;5051674;28;20187;-86
2021/12/29 03:55:41;;;;;;;5.57;1.25;;;8.30;99.90;;;;;;5034214;28;20201;-85
2021/12/29 03:58:07;;;;;;;2.10;0.80;;;;;;;;;;5034316;28;20273;-85
2021/12/29 04:00:33;;;;;;;2.93;1.43;;;;;;;;;;5040697;28;20205;-87
2021/12/29 04:02:59;;;;;;;3.07;1.13;;;;;;;;;;5037690;28;20435;-86
2021/12/29 04:05:25;;;;;;;2.93;1.20;;;8.40;99.90;;;;;;5034253;28;20788;-87
2021/12/29 04:07:53;;;;;;;3.30;0.97;;;8.40;99.90;;;;;;5036895;28;21175;-87
2021/12/29 04:10:19;;;;;;;4.20;1.02;;;;;;;;;;5033885;28;20440;-84
2021/12/29 04:12:44;;;;;;;2.72;0.80;;;8.50;99.90;;;;;;5037139;28;20201;-84
2021/12/29 04:15:11;;;;;;;2.60;1.00;;;8.50;99.90;;;;;;5035238;28;20223;-87
2021/12/29 04:17:40;;;;;;;5.03;1.80;;;8.50;99.90;;;;;;5051959;28;20424;-87
2021/12/29 04:22:57;;;;;;;4.60;0.98;;;8.50;99.90;;;;;;5057648;28;20184;-89
2021/12/29 04:25:27;;;;;;;2.33;0.75;;;8.50;99.90;;;;;;5040813;28;20181;-89
2021/12/29 04:27:57;;;;;;;1.05;0.93;;;8.60;99.90;;;;;;5036476;28;20201;-87
2021/12/29 04:30:24;;;;;;;2.55;1.00;;;8.60;99.90;;;;;;5020385;28;20174;-87
2021/12/29 04:32:52;;;;;;;3.72;1.10;;;8.50;99.90;;;;;;5020330;28;20174;-87
2021/12/29 04:35:19;;;;;;;3.10;1.23;;;8.60;99.90;;;;;;5028608;28;20324;-86
2021/12/29 04:37:45;;;;;;;4.78;0.90;;;;;;;;;;5040909;28;20224;-87
2021/12/29 04:40:10;;;;;;;2.63;0.70;;;8.70;99.90;;;;;;5033661;28;20193;-87
2021/12/29 04:42:36;;;;;;;1.90;0.90;;;;;;;;;;5046324;28;20448;-86
2021/12/29 04:45:03;;;;;;;3.97;1.13;;;8.60;99.90;;;;;;5034233;28;20181;-85
2021/12/29 04:47:30;;;;;;;0.98;0.45;;;8.60;99.90;;;;;;5036286;28;20920;-90
2021/12/29 04:50:00;;;;;;;2.90;0.95;;;8.70;99.90;;;;;;5027415;28;20196;-88
2021/12/29 04:52:27;;;;;;;0.93;0.40;;;8.70;99.90;;;;;;5037916;28;20173;-90
2021/12/29 04:54:53;;;;;;;6.47;0.70;;;;;;;;;;5038125;28;20201;-89
2021/12/29 04:57:19;;;;;;;1.95;0.98;;;;;;;;;;5046374;28;20201;-90
2021/12/29 04:59:45;;;;;;;2.15;0.60;;;;;;;;;;5041630;28;20637;-91
2021/12/29 05:02:11;;;;;;;1.02;0.50;;;8.70;99.90;;;;;;5058356;28;20192;-90
2021/12/29 05:04:45;;;;;;;1.67;0.90;;;8.60;99.90;;;;;;5040217;28;20177;-86
2021/12/29 05:09:57;;;;;;;0.75;0.40;;;8.70;99.90;;;;;;5048792;28;20192;-87
2021/12/29 05:12:23;;;;;;;0.68;0.40;;;;;;;;;;5036720;28;20173;-89
2021/12/29 05:14:48;;;;;;;1.25;0.55;;;8.70;99.90;;;;;;5036705;28;20196;-89
2021/12/29 05:17:14;;;;;;;2.63;1.30;;;;;;;;;;5034131;28;20201;-87
2021/12/29 05:19:40;;;;;;;2.40;0.75;;;;;;;;;;5052122;28;20196;-86
2021/12/29 05:22:06;;;;;;;1.65;0.68;;;;;;;;;;5035179;28;20181;-89
2021/12/29 05:24:32;;;;;;;4.43;1.17;;;;;;;;;;5048138;28;20776;-86
2021/12/29 05:26:59;;;;;;;6.25;1.20;;;;;;;;;;5033060;28;20435;-89
2021/12/29 05:29:25;;;;;;;1.35;0.80;;;8.60;99.90;;;;;;5038022;28;20268;-88
2021/12/29 05:31:51;;;;;;;1.65;0.70;;;;;;;;;;5033896;28;20181;-84
2021/12/29 05:34:17;;;;;;;1.37;1.13;;;;;;;;;;5034428;28;20668;-84
2021/12/29 05:36:43;;;;;;;1.40;0.60;;;8.50;99.90;;;;;;5051420;28;20521;-88
2021/12/29 05:39:08;;;;;;;2.60;0.87;;;8.50;99.90;;;;;;5035383;28;20451;-87
2021/12/29 05:41:34;;;;;;;2.40;1.13;;;8.50;99.90;;;;;;5031666;28;20188;-87
2021/12/29 05:44:00;;;;;;;2.70;1.10;;;;;;;;;;5030808;28;20172;-86
2021/12/29 05:46:26;;;;;;;1.27;0.70;;;8.50;99.90;;;;;;5047076;28;20431;-85
2021/12/29 05:48:52;;;;;;;3.55;0.77;;;;;;;;;;5028052;28;20955;-86
2021/12/29 05:51:18;;;;;;;0.60;0.50;;;;;;;;;;5029941;28;20185;-88
2021/12/29 05:53:44;;;;;;;0.90;0.50;;;;;;;;;;5031942;28;20428;-84
2021/12/29 05:56:10;;;;;;;2.72;1.77;;;;;;;;;;5028697;28;20474;-84
2021/12/29 05:58:37;;;;;;;3.53;0.73;;;8.50;99.90;;;;;;5027594;28;20231;-85
2021/12/29 06:01:04;;;;;;;2.75;0.95;;;8.50;99.90;;;;;;5046005;28;20210;-84
2021/12/29 06:03:30;;;;;;;1.83;0.65;;;8.50;99.90;;;;;;5045846;28;20205;-86
2021/12/29 06:05:55;;;;;;;2.10;1.13;;;8.50;99.90;;;;;;5046917;28;20306;-83
2021/12/29 06:08:21;;;;;;;4.23;1.60;;;8.50;99.90;;;;;;5029079;28;20205;-86
2021/12/29 06:10:47;;;;;;;2.50;0.70;;;8.50;99.90;;;;;;5025635;28;20217;-81
2021/12/29 06:13:12;;;;;;;4.30;1.13;;;8.50;99.90;;;;;;5026432;28;20711;-82
2021/12/29 06:15:38;;;;;;;0.50;0.50;;;;;;;;;;5027256;28;20232;-82
2021/12/29 06:18:04;;;;;;;1.07;0.70;;;8.50;99.90;;;;;;5049572;28;20219;-80
2021/12/29 06:20:30;;;;;;;1.67;0.90;;;8.50;99.90;;;;;;5028685;28;20435;-80
2021/12/29 06:22:55;;;;;;;5.70;0.70;;;8.50;99.90;;;;;;5048468;28;20201;-80
2021/12/29 06:25:21;;;;;;;1.30;1.13;;;8.50;99.90;;;;;;5024799;28;20442;-82
2021/12/29 06:27:47;;;;;;;1.23;0.53;;;8.40;99.90;;;;;;5029190;28;20209;-81
2021/12/29 06:30:14;;;;;;;1.00;0.50;;;8.50;99.90;;;;;;5029752;28;20205;-80
2021/12/29 06:32:41;;;;;;;2.78;0.52;;;8.50;99.90;;;;;;5049732;28;20443;-81
2021/12/29 06:35:09;;;;;;;2.13;0.88;;;8.50;99.90;;;;;;5044934;28;20212;-81
2021/12/29 06:37:35;;;;;;;2.88;0.50;;;;;;;;;;5042510;28;20323;-81
2021/12/29 06:40:00;;;;;;;2.30;0.90;;;8.50;99.90;;;;;;5048946;28;20272;-82
2021/12/29 06:42:26;;;;;;;3.70;0.57;;;8.40;99.90;;;;;;5031505;28;20439;-82
2021/12/29 06:44:53;;;;;;;3.93;0.43;;;9.10;99.90;;;;;;5026451;28;20189;-81
2021/12/29 06:47:18;;;;;;;0.73;0.73;;;8.50;99.90;;;;;;5029175;28;20731;-81
2021/12/29 06:49:44;;;;;;;1.10;1.00;;;8.40;99.90;;;;;;5027804;28;20189;-82
2021/12/29 06:52:10;;;;;;;5.40;0.80;;;8.30;99.90;;;;;;5049133;28;20764;-84
2021/12/29 06:54:37;;;;;;;0.93;0.60;;;8.30;99.90;;;;;;5031739;28;20267;-83
2021/12/29 06:57:03;;;;;;;2.15;0.75;;;8.20;99.90;;;;;;5046733;28;20277;-81
2021/12/29 06:59:29;;;;;;;2.05;0.60;;;8.20;99.90;;;;;;5028801;28;20270;-81
2021/12/29 07:01:55;;;;;;;2.17;0.90;;;8.20;99.90;;;;;;5030919;28;20272;-83
2021/12/29 07:04:23;;;;;;;3.67;0.98;;;8.10;99.90;;;;;;5047613;28;20304;-82
2021/12/29 07:06:51;;;;;;;9.90;1.33;;;8.20;99.90;;;;;;5027226;28;20185;-81
2021/12/29 07:09:17;;;;;;;5.90;2.03;;;8.10;99.90;;;;;;5029788;28;20215;-83
2021/12/29 07:11:43;;;;;;;4.93;1.30;;;8.20;99.90;;;;;;5044859;28;20197;-82
2021/12/29 07:14:09;;;;;;;4.57;1.20;;;8.10;99.90;;;;;;5046512;28;20189;-82
2021/12/29 07:16:37;;;;;;;10.95;1.70;;;8.10;99.90;;;;;;5030438;28;20287;-78
2021/12/29 07:19:03;;;;;;;6.20;1.27;;;8.10;99.90;;;;;;5028462;28;20193;-79
2021/12/29 07:21:29;;;;;;;12.90;2.45;;;;;;;;;;5026493;28;20207;-80
2021/12/29 07:23:55;;;;;;;5.40;1.35;;;;;;;;;;5045484;28;20211;-82
2021/12/29 07:26:24;;;;;;;8.35;1.25;;;8.10;99.90;;;;;;5024517;28;20212;-80
2021/12/29 07:28:51;;;;;;;4.45;1.65;;;8.10;99.90;;;;;;5047666;28;20200;-82
2021/12/29 07:31:18;;;;;;;2.35;1.20;;;8.10;99.90;;;;;;5029710;28;20185;-80
2021/12/29 07:33:44;;;;;;;4.85;1.38;;;8.20;99.90;;;;;;5024703;28;20192;-81
2021/12/29 07:36:11;;;;;;;4.43;1.20;;;8.20;99.90;;;;;;5032031;28;20200;-83
2021/12/29 07:38:38;;;;;;;7.13;1.95;;;8.20;99.90;;;;;;5033404;28;21014;-81
2021/12/29 07:41:03;;;;;;;2.47;1.08;;;8.20;99.90;;;;;;5027973;28;20208;-81
2021/12/29 07:43:29;;;;;;;2.63;1.23;;;;;;;;;;5047959;28;20865;-81
2021/12/29 07:45:55;;;;;;;2.80;1.20;;;8.20;99.90;;;;;;5030967;28;20700;-83
2021/12/29 07:48:28;;;;;;;6.63;1.37;;;8.20;99.90;;;;;;5030530;28;20208;-77
2021/12/29 07:50:54;;;;;;;5.00;1.30;;;8.30;99.90;;;;;;5030010;28;20185;-80
2021/12/29 07:53:21;;;;;;;1.15;0.85;;;8.20;99.90;;;;;;5031563;28;20189;-81
2021/12/29 07:55:47;;;;;;;5.80;1.10;;;8.20;99.90;;;;;;5045557;28;20556;-79
2021/12/29 07:58:12;;;;;;;9.57;1.33;;;8.30;99.90;;;;;;5045936;28;20209;-81
2021/12/29 08:00:39;;;;;;;3.50;1.43;;;8.30;99.90;;;;;;5022076;28;20574;-85
2021/12/29 08:03:04;;;;;;;4.53;2.00;;;8.40;99.90;;;;;;5031082;28;21078;-82
2021/12/29 08:05:30;;;;;;;2.70;1.20;;;;;;;;;;5028507;28;20288;-81
2021/12/29 08:07:56;;;;;;;2.27;1.40;;;8.40;99.90;;;;;;5032732;28;20292;-82
2021/12/29 08:10:22;;;;;;;6.37;2.40;;;8.40;99.90;;;;;;5030797;28;20439;-83
2021/12/29 08:12:48;;;;;;;7.80;2.80;;;8.50;99.90;;;;;;5049655;28;20189;-81
2021/12/29 08:15:13;;;;;;;3.50;1.87;;;8.50;99.90;;;;;;5046741;28;20359;-80
2021/12/29 08:17:40;;;;;;;4.43;1.48;;;8.50;99.90;;;;;;5031998;28;20456;-81
2021/12/29 08:20:07;;;;;;;2.47;1.40;;;8.50;99.90;;;;;;5044131;28;20181;-80
2021/12/29 08:22:33;;;;;;;3.13;1.48;;;8.50;99.90;;;;;;5041775;28;20181;-78
2021/12/29 08:24:59;;;;;;;6.77;1.40;;;8.50;99.90;;;;;;5045403;28;20378;-80
2021/12/29 08:27:25;;;;;;;10.88;1.60;;;8.50;99.90;;;;;;5042793;28;20196;-83
2021/12/29 08:29:50;;;;;;;5.50;1.53;;;8.60;99.90;;;;;;5043227;28;20200;-81
2021/12/29 08:32:16;;;;;;;6.50;1.20;;;8.60;99.90;;;;;;5041654;28;20435;-78
2021/12/29 08:34:42;;;;;;;6.50;1.17;;;8.70;99.90;;;;;;5038303;28;20208;-79
2021/12/29 08:37:07;;;;;;;2.20;1.30;;;8.60;99.90;;;;;;5046182;28;20184;-84
2021/12/29 08:39:33;;;;;;;2.77;1.57;;;8.60;99.90;;;;;;5026853;28;22343;-82
2021/12/29 08:41:59;;;;;;;6.60;1.93;;;8.70;99.90;;;;;;5042457;28;20177;-85
2021/12/29 08:44:29;;;;;;;7.23;1.53;;;8.70;99.90;;;;;;5044038;28;20185;-79
2021/12/29 08:46:54;;;;;;;2.65;1.42;;;8.70;99.90;;;;;;5028222;28;20463;-80
2021/12/29 08:49:20;;;;;;;2.70;1.20;;;8.70;99.90;;;;;;5038656;28;20270;-79
2021/12/29 08:51:46;;;;;;;14.50;2.83;;;8.70;99.90;;;;;;5017665;28;20185;-81
2021/12/29 08:54:13;;;;;;;4.07;1.47;;;8.60;99.90;;;;;;5022863;28;20196;-81
2021/12/29 08:56:38;;;;;;;8.13;1.48;;;8.60;99.90;;;;;;5040862;28;20197;-83
2021/12/29 08:59:04;;;;;;;2.20;1.20;;;8.70;99.90;;;;;;5036725;28;22040;-83
2021/12/29 09:01:30;;;;;;;4.40;1.57;;;8.80;99.90;;;;;;5039307;28;20180;-82
2021/12/29 09:03:56;;;;;;;5.30;1.47;;;8.80;99.90;;;;;;5023643;28;20459;-81
2021/12/29 09:06:22;;;;;;;6.37;1.87;;;8.90;99.90;;;;;;5021411;28;20540;-83
2021/12/29 09:08:48;;;;;;;6.10;1.35;;;9.00;99.90;;;;;;5041603;28;20261;-83
2021/12/29 09:11:14;;;;;;;3.15;1.08;;;9.10;99.90;;;;;;5021485;28;20189;-83
2021/12/29 09:13:40;;;;;;;1.93;0.87;;;9.20;99.90;;;;;;5040163;28;20188;-84
2021/12/29 09:16:06;;;;;;;2.63;0.90;;;;;;;;;;5037623;28;20869;-79
2021/12/29 09:18:34;;;;;;;3.72;1.70;;;9.20;99.90;;;;;;5045566;28;20517;-83
2021/12/29 09:21:06;;;;;;;3.90;1.30;;;9.20;99.90;;;;;;5027076;28;20181;-82
2021/12/29 09:23:33;;;;;;;2.38;1.02;;;9.20;99.90;;;;;;5027413;28;20188;-81
2021/12/29 09:25:58;;;;;;;3.80;1.02;;;9.10;99.90;;;;;;5025995;28;21610;-84
2021/12/29 09:28:24;;;;;;;3.57;0.73;;;;;;;;;;5044260;28;20205;-84
2021/12/29 09:30:51;;;;;;;3.40;1.10;;;9.20;99.90;;;;;;5046822;28;20204;-82
2021/12/29 09:33:19;;;;;;;3.85;1.17;;;9.10;99.90;;;;;;5030962;28;20193;-84
2021/12/29 09:35:47;;;;;;;1.58;0.90;;;9.10;99.90;;;;;;5028450;28;20189;-83
2021/12/29 09:38:14;;;;;;;2.40;1.40;;;9.00;99.90;;;;;;5028984;28;20312;-82
2021/12/29 09:40:41;;;;;;;5.82;1.52;;;9.10;99.90;;;;;;5029962;28;20847;-84
2021/12/29 09:43:07;;;;;;;3.40;1.63;;;9.10;99.90;;;;;;5045920;28;20182;-82
2021/12/29 09:45:33;;;;;;;5.05;1.60;;;9.10;99.90;;;;;;5026651;28;20188;-80
2021/12/29 09:47:59;;;;;;;4.00;1.10;;;9.10;99.90;;;;;;5026914;28;20255;-83
2021/12/29 09:50:26;;;;;;;5.15;2.45;;;9.10;99.90;;;;;;5046541;28;20181;-84
2021/12/29 09:52:52;;;;;;;7.22;1.10;;;9.20;99.90;;;;;;5025499;28;20220;-84
2021/12/29 09:55:20;;;;;;;4.33;1.30;;;9.40;99.90;;;;;;5052058;28;20243;-84
2021/12/29 09:57:48;;;;;;;5.97;1.85;;;9.40;99.90;;;;;;5028272;28;20509;-85
2021/12/29 10:00:31;;;;;;;4.82;1.15;;;9.30;99.90;;;;;;5050505;28;20195;-83
2021/12/29 10:02:59;;;;;;;7.88;3.08;;;9.40;99.90;;;;;;5031372;28;20180;-80
2021/12/29 10:05:27;;;;;;;7.43;1.52;;;9.60;99.90;;;;;;5029301;28;20242;-82
2021/12/29 10:08:11;;;;;;;6.07;1.42;;;9.60;99.90;;;;;;5028182;28;20293;-82
2021/12/29 10:10:42;;;;;;;13.13;2.55;;;9.50;99.90;;;;;;5035630;28;20215;-82
2021/12/29 10:13:09;;;;;;;6.72;1.38;;;9.50;99.90;;;;;;5051094;28;20181;-84
2021/12/29 10:15:44;;;;;;;3.13;1.20;;;9.70;99.90;;;;;;5027674;28;20209;-84
2021/12/29 10:18:22;;;;;;;11.18;2.47;;;9.70;99.90;;;;;;5036158;28;20592;-83
2021/12/29 10:20:52;;;;;;;8.88;1.70;;;9.80;99.90;;;;;;5029853;28;20665;-81
2021/12/29 10:23:28;;;;;;;3.85;1.38;;;9.90;99.90;;;;;;5030963;28;22223;-83
2021/12/29 10:26:03;;;;;;;5.75;1.20;;;9.70;99.90;;;;;;5048070;28;20364;-82
2021/12/29 10:28:31;;;;;;;5.13;1.63;;;9.70;99.90;;;;;;5048573;28;20210;-82
2021/12/29 10:31:06;;;;;;;4.82;1.10;;;9.70;99.90;;;;;;5052604;28;20192;-84
2021/12/29 10:33:47;;;;;;;3.25;1.20;;;9.70;99.90;;;;;;5025506;28;20196;-82
2021/12/29 10:36:36;;;;;;;4.10;1.85;;;9.80;99.90;;;;;;5051792;28;20209;-83
2021/12/29 10:39:20;;;;;;;6.75;1.40;;;10.00;99.90;;;;;;5052382;28;20198;-84
2021/12/29 10:41:55;;;;;;;4.88;1.95;;;10.10;99.90;;;;;;5052525;28;20280;-82
2021/12/29 10:44:44;;;;;;;4.10;1.00;;;10.40;99.90;;;;;;5032920;28;20191;-81
2021/12/29 10:47:26;;;;;;;1.85;1.35;;;10.50;99.90;;;;;;5034728;28;20204;-83
2021/12/29 10:50:18;;;;;;;8.35;1.58;;;10.60;99.90;;;;;;5047518;28;20181;-83
2021/12/29 10:52:53;;;;;;;8.18;1.60;;;10.50;99.90;;;;;;5048135;28;20189;-84
2021/12/29 10:55:34;;;;;;;3.80;1.17;;;10.50;99.90;;;;;;5049218;28;20188;-80
2021/12/29 10:58:07;;;;;;;8.73;1.80;;;10.70;99.90;;;;;;5031163;28;20909;-82
2021/12/29 11:00:35;;;;;;;2.58;1.27;;;10.80;99.90;;;;;;5027007;28;20258;-82
2021/12/29 11:03:27;;;;;;;8.15;1.08;;;10.90;99.90;;;;;;5044957;28;20175;-81
2021/12/29 11:05:58;;;;;;;2.10;1.10;;;11.00;99.90;;;;;;5018011;28;20284;-85
2021/12/29 11:08:33;;;;;;;9.07;2.05;;;11.00;99.90;;;;;;5030690;28;20204;-82
2021/12/29 11:11:07;;;;;;;7.32;1.52;;;11.10;99.90;;;;;;5046567;28;20230;-84
2021/12/29 11:13:33;;;;;;;6.15;1.55;;;;;;;;;;5028855;28;20210;-84
2021/12/29 11:16:00;;;;;;;3.30;1.25;;;10.90;99.90;;;;;;5025060;28;20200;-83
2021/12/29 11:18:27;;;;;;;2.83;1.40;;;;;;;;;;5023706;28;20197;-82
2021/12/29 11:20:58;;;;;;;4.68;1.27;;;10.70;99.90;;;;;;5023438;28;20666;-83
2021/12/29 11:23:24;;;;;;;7.68;1.75;;;;;;;;;;5046680;28;20169;-81
2021/12/29 11:25:52;;;;;;;7.00;1.58;;;10.10;99.90;;;;;;5030627;28;20185;-81
2021/12/29 11:28:25;;;;;;;3.78;1.60;;;10.10;99.90;;;;;;5025807;28;20209;-80
2021/12/29 11:30:51;;;;;;;4.70;1.00;;;10.10;99.90;;;;;;5045195;28;21011;-83
2021/12/29 11:33:18;;;;;;;4.47;1.00;;;9.90;99.90;;;;;;5046562;28;20204;-83
2021/12/29 11:35:47;;;;;;;1.73;1.05;;;10.00;99.90;;;;;;5045971;28;20233;-80
2021/12/29 11:38:14;;;;;;;4.32;1.63;;;10.10;99.90;;;;;;5028852;28;20227;-82
2021/12/29 11:40:45;;;;;;;2.95;1.30;;;10.20;99.90;;;;;;5047424;28;20173;-83
2021/12/29 11:43:11;;;;;;;1.83;1.08;;;10.40;99.90;;;;;;5039596;28;20184;-83
2021/12/29 11:45:38;;;;;;;5.20;0.90;;;10.50;99.90;;;;;;5048989;28;20300;-82
2021/12/29 11:48:04;;;;;;;2.78;0.90;;;10.50;99.90;;;;;;5027863;28;20248;-85
2021/12/29 11:50:34;;;;;;;1.80;0.70;;;10.40;99.90;;;;;;5045521;28;20193;-83
2021/12/29 11:53:22;;;;;;;2.00;0.80;;;10.40;99.90;;;;;;5028447;28;20990;-83
2021/12/29 11:55:53;;;;;;;1.65;0.70;;;10.40;99.90;;;;;;5047697;28;20196;-81
2021/12/29 11:58:41;;;;;;;7.68;1.50;;;10.50;99.90;;;;;;5046506;28;20201;-81
2021/12/29 12:01:07;;;;;;;4.35;0.80;;;;;;;;;;5030432;28;20176;-81
2021/12/29 12:03:52;;;;;;;3.15;1.30;;;10.30;99.90;;;;;;5046365;28;20189;-82
2021/12/29 12:06:32;;;;;;;7.18;1.10;;;10.20;99.90;;;;;;5022426;28;20197;-83
2021/12/29 12:09:25;;;;;;;7.22;1.38;;;10.60;99.90;;;;;;5045040;28;20292;-85
2021/12/29 12:11:52;;;;;;;4.72;0.90;;;10.20;99.90;;;;;;5042990;28;20173;-81
2021/12/29 12:14:22;;;;;;;6.38;1.88;;;10.40;99.90;;;;;;5023597;28;20261;-82
2021/12/29 12:16:57;;;;;;;2.67;0.80;;;10.50;99.90;;;;;;5045609;28;20994;-82
2021/12/29 12:19:25;;;;;;;4.13;1.13;;;10.50;99.90;;;;;;5045513;28;20177;-83
2021/12/29 12:22:14;;;;;;;6.22;2.83;;;10.20;99.90;;;;;;5021425;28;20251;-84
2021/12/29 12:25:03;;;;;;;2.88;1.30;;;10.40;99.90;;;;;;5028966;23;20660;-86
2021/12/29 12:27:36;;;;;;;2.25;0.98;;;10.60;99.90;;;;;;5013327;28;20209;-89
2021/12/29 12:30:25;;;;;;;6.93;2.08;;;10.60;99.90;;;;;;5004438;28;20196;-88
2021/12/29 12:33:09;;;;;;;3.28;0.82;;;10.50;99.90;;;;;;5005955;28;20264;-86
2021/12/29 12:35:40;;;;;;;4.40;0.95;;;10.80;99.90;;;;;;5016675;28;20245;-88
2021/12/29 12:38:16;;;;;;;2.92;1.17;;;10.90;99.90;;;;;;5010616;28;20181;-87
2021/12/29 12:40:43;;;;;;;7.60;1.55;;;11.00;99.90;;;;;;5008508;28;20177;-88
2021/12/29 12:43:16;;;;;;;4.85;1.10;;;11.00;99.90;;;;;;5022572;28;20182;-85
2021/12/29 12:45:51;;;;;;;2.58;0.93;;;10.80;99.90;;;;;;5015607;28;20208;-86
2021/12/29 12:48:32;;;;;;;2.22;0.80;;;10.80;99.90;;;;;;5035226;28;20208;-86
2021/12/29 12:51:02;;;;;;;3.65;0.88;;;10.60;99.90;;;;;;5013380;28;20188;-88
2021/12/29 12:53:38;;;;;;;4.75;1.23;;;10.40;99.90;;;;;;5012065;28;20190;-87
2021/12/29 12:56:12;;;;;;;3.55;1.50;;;10.40;99.90;;;;;;5009702;28;20236;-88
2021/12/29 12:58:40;;;;;;;4.60;1.30;;;10.40;99.90;;;;;;5004299;28;20665;-87
2021/12/29 13:01:13;;;;;;;10.38;1.55;;;10.40;99.90;;;;;;5015529;28;20177;-88
2021/12/29 13:03:39;;;;;;;4.95;1.30;;;;;;;;;;5006971;28;20182;-87
2021/12/29 13:06:22;;;;;;;7.03;1.80;;;10.30;99.90;;;;;;5002777;28;20210;-86
2021/12/29 13:08:50;;;;;;;8.45;2.20;;;10.60;99.90;;;;;;5004922;28;20904;-87
2021/12/29 13:11:21;;;;;;;9.93;1.60;;;10.60;99.90;;;;;;5007171;28;20182;-86
2021/12/29 13:13:51;;;;;;;6.97;1.70;;;10.60;99.90;;;;;;5003361;28;20197;-85
2021/12/29 13:16:22;;;;;;;8.15;3.05;;;10.70;99.90;;;;;;5000235;28;20216;-88
2021/12/29 13:18:50;;;;;;;9.88;2.08;;;10.60;99.90;;;;;;5005609;28;20181;-87
2021/12/29 13:21:25;;;;;;;5.03;1.60;;;10.50;99.90;;;;;;4994569;28;20174;-84
2021/12/29 13:23:53;;;;;;;6.00;1.60;;;10.50;99.90;;;;;;4993427;28;20193;-87
2021/12/29 13:26:19;;;;;;;7.35;1.73;;;;;;;;;;5019068;28;20256;-87